Terminal Aerodrome Forecast
Issued by NWS North Platte, NE

Home | Current Version | Previous Version | Text Only | Print | Product List | Glossary On
Versions: 1 2 3 4 5 6 7 8 9 10 11 12 13 14 15 16 17 18 19 20 21 22 23 24
000
FTUS43 KLBF 030500
TAFVTN
TAF
KVTN 030520Z 0306/0406 18012KT P6SM SKC
     FM031600 22014KT P6SM SKC
     FM032100 22012KT P6SM SCT250
     FM040100 17011KT P6SM SKC=

USA.gov is the U.S. government's official web portal to all federal, state and local government web resources and services.